sensor_id;sensor_type;location;lat;lon;timestamp;P1;durP1;ratioP1;P2;durP2;ratioP2
38266;SDS011;24063;51.794;19.578;2023-02-12T00:00:57;6.64;;;6.56;;
38266;SDS011;24063;51.794;19.578;2023-02-12T00:02:17;5.76;;;5.73;;
38266;SDS011;24063;51.794;19.578;2023-02-12T00:03:18;5.50;;;5.49;;
38266;SDS011;24063;51.794;19.578;2023-02-12T00:04:18;5.64;;;5.64;;
38266;SDS011;24063;51.794;19.578;2023-02-12T00:05:19;5.41;;;5.36;;
38266;SDS011;24063;51.794;19.578;2023-02-12T00:06:19;4.97;;;4.92;;
38266;SDS011;24063;51.794;19.578;2023-02-12T00:07:20;4.47;;;4.47;;
38266;SDS011;24063;51.794;19.578;2023-02-12T00:08:21;4.85;;;4.82;;
38266;SDS011;24063;51.794;19.578;2023-02-12T00:09:21;4.81;;;4.78;;
38266;SDS011;24063;51.794;19.578;2023-02-12T00:10:22;4.42;;;4.41;;
38266;SDS011;24063;51.794;19.578;2023-02-12T00:11:24;4.13;;;4.13;;
38266;SDS011;24063;51.794;19.578;2023-02-12T00:12:27;3.71;;;3.71;;
38266;SDS011;24063;51.794;19.578;2023-02-12T00:13:29;4.07;;;4.07;;
38266;SDS011;24063;51.794;19.578;2023-02-12T00:14:30;3.90;;;3.90;;
38266;SDS011;24063;51.794;19.578;2023-02-12T00:15:31;3.69;;;3.69;;
38266;SDS011;24063;51.794;19.578;2023-02-12T00:16:33;3.93;;;3.93;;
38266;SDS011;24063;51.794;19.578;2023-02-12T00:17:34;4.06;;;4.06;;
38266;SDS011;24063;51.794;19.578;2023-02-12T00:18:35;3.36;;;3.36;;
38266;SDS011;24063;51.794;19.578;2023-02-12T00:19:35;3.20;;;3.20;;
38266;SDS011;24063;51.794;19.578;2023-02-12T00:20:36;3.89;;;3.89;;
38266;SDS011;24063;51.794;19.578;2023-02-12T00:21:37;3.36;;;3.36;;
38266;SDS011;24063;51.794;19.578;2023-02-12T00:22:38;3.48;;;3.47;;
38266;SDS011;24063;51.794;19.578;2023-02-12T00:23:39;3.98;;;3.98;;
38266;SDS011;24063;51.794;19.578;2023-02-12T00:24:40;3.46;;;3.46;;
38266;SDS011;24063;51.794;19.578;2023-02-12T00:25:41;3.34;;;3.34;;
38266;SDS011;24063;51.794;19.578;2023-02-12T00:26:41;3.62;;;3.62;;
38266;SDS011;24063;51.794;19.578;2023-02-12T00:27:42;3.32;;;3.32;;
38266;SDS011;24063;51.794;19.578;2023-02-12T00:28:42;3.73;;;3.73;;
38266;SDS011;24063;51.794;19.578;2023-02-12T00:29:44;3.40;;;3.40;;
38266;SDS011;24063;51.794;19.578;2023-02-12T00:30:44;3.42;;;3.42;;
38266;SDS011;24063;51.794;19.578;2023-02-12T00:31:45;3.36;;;3.36;;
38266;SDS011;24063;51.794;19.578;2023-02-12T00:32:46;3.39;;;3.39;;
38266;SDS011;24063;51.794;19.578;2023-02-12T00:33:46;2.99;;;2.99;;
38266;SDS011;24063;51.794;19.578;2023-02-12T00:34:47;3.23;;;3.23;;
38266;SDS011;24063;51.794;19.578;2023-02-12T00:35:58;3.39;;;3.39;;
38266;SDS011;24063;51.794;19.578;2023-02-12T00:36:58;2.82;;;2.82;;
38266;SDS011;24063;51.794;19.578;2023-02-12T00:37:59;2.81;;;2.81;;
38266;SDS011;24063;51.794;19.578;2023-02-12T00:39:00;2.91;;;2.91;;
38266;SDS011;24063;51.794;19.578;2023-02-12T00:40:01;2.91;;;2.91;;
38266;SDS011;24063;51.794;19.578;2023-02-12T00:41:01;3.13;;;3.13;;
38266;SDS011;24063;51.794;19.578;2023-02-12T00:42:02;2.81;;;2.81;;
38266;SDS011;24063;51.794;19.578;2023-02-12T00:43:04;2.87;;;2.87;;
38266;SDS011;24063;51.794;19.578;2023-02-12T00:44:06;2.74;;;2.74;;
38266;SDS011;24063;51.794;19.578;2023-02-12T00:45:07;3.47;;;3.47;;
38266;SDS011;24063;51.794;19.578;2023-02-12T00:46:08;3.31;;;3.31;;
38266;SDS011;24063;51.794;19.578;2023-02-12T00:47:09;2.99;;;2.99;;
38266;SDS011;24063;51.794;19.578;2023-02-12T00:48:10;2.97;;;2.97;;
38266;SDS011;24063;51.794;19.578;2023-02-12T00:49:10;3.08;;;3.08;;
38266;SDS011;24063;51.794;19.578;2023-02-12T00:50:11;3.02;;;3.02;;
38266;SDS011;24063;51.794;19.578;2023-02-12T00:51:14;3.07;;;3.07;;
38266;SDS011;24063;51.794;19.578;2023-02-12T00:52:14;3.26;;;3.26;;
38266;SDS011;24063;51.794;19.578;2023-02-12T00:53:15;3.11;;;3.11;;
38266;SDS011;24063;51.794;19.578;2023-02-12T00:54:16;3.24;;;3.24;;
38266;SDS011;24063;51.794;19.578;2023-02-12T00:55:17;3.45;;;3.45;;
38266;SDS011;24063;51.794;19.578;2023-02-12T00:56:18;3.22;;;3.22;;
38266;SDS011;24063;51.794;19.578;2023-02-12T00:57:21;3.24;;;3.24;;
38266;SDS011;24063;51.794;19.578;2023-02-12T00:58:22;3.15;;;3.15;;
38266;SDS011;24063;51.794;19.578;2023-02-12T00:59:23;3.21;;;3.21;;
38266;SDS011;24063;51.794;19.578;2023-02-12T01:00:25;3.06;;;3.06;;
38266;SDS011;24063;51.794;19.578;2023-02-12T01:01:26;2.92;;;2.92;;
38266;SDS011;24063;51.794;19.578;2023-02-12T01:02:26;2.79;;;2.79;;
38266;SDS011;24063;51.794;19.578;2023-02-12T01:03:27;2.53;;;2.53;;
38266;SDS011;24063;51.794;19.578;2023-02-12T01:04:27;2.56;;;2.56;;
38266;SDS011;24063;51.794;19.578;2023-02-12T01:05:28;2.93;;;2.93;;
38266;SDS011;24063;51.794;19.578;2023-02-12T01:06:30;2.45;;;2.45;;
38266;SDS011;24063;51.794;19.578;2023-02-12T01:07:30;2.72;;;2.72;;
38266;SDS011;24063;51.794;19.578;2023-02-12T01:08:31;2.36;;;2.36;;
38266;SDS011;24063;51.794;19.578;2023-02-12T01:09:32;2.41;;;2.41;;
38266;SDS011;24063;51.794;19.578;2023-02-12T01:10:33;2.47;;;2.47;;
38266;SDS011;24063;51.794;19.578;2023-02-12T01:11:34;2.67;;;2.67;;
38266;SDS011;24063;51.794;19.578;2023-02-12T01:12:34;3.09;;;3.09;;
38266;SDS011;24063;51.794;19.578;2023-02-12T01:13:35;3.48;;;3.48;;
38266;SDS011;24063;51.794;19.578;2023-02-12T01:14:35;3.25;;;3.25;;
38266;SDS011;24063;51.794;19.578;2023-02-12T01:15:36;3.20;;;3.20;;
38266;SDS011;24063;51.794;19.578;2023-02-12T01:16:38;3.52;;;3.52;;
38266;SDS011;24063;51.794;19.578;2023-02-12T01:17:39;3.32;;;3.32;;
38266;SDS011;24063;51.794;19.578;2023-02-12T01:18:40;3.55;;;3.55;;
38266;SDS011;24063;51.794;19.578;2023-02-12T01:19:42;3.38;;;3.38;;
38266;SDS011;24063;51.794;19.578;2023-02-12T01:20:43;3.77;;;3.77;;
38266;SDS011;24063;51.794;19.578;2023-02-12T01:21:43;3.27;;;3.27;;
38266;SDS011;24063;51.794;19.578;2023-02-12T01:22:44;3.71;;;3.71;;
38266;SDS011;24063;51.794;19.578;2023-02-12T01:23:46;3.73;;;3.73;;
38266;SDS011;24063;51.794;19.578;2023-02-12T01:24:48;3.57;;;3.57;;
38266;SDS011;24063;51.794;19.578;2023-02-12T01:25:48;3.73;;;3.73;;
38266;SDS011;24063;51.794;19.578;2023-02-12T01:26:49;3.62;;;3.62;;
38266;SDS011;24063;51.794;19.578;2023-02-12T01:27:51;3.86;;;3.86;;
38266;SDS011;24063;51.794;19.578;2023-02-12T01:28:54;4.05;;;4.05;;
38266;SDS011;24063;51.794;19.578;2023-02-12T01:29:59;3.62;;;3.62;;
38266;SDS011;24063;51.794;19.578;2023-02-12T01:30:59;3.93;;;3.93;;
38266;SDS011;24063;51.794;19.578;2023-02-12T01:32:00;3.69;;;3.69;;
38266;SDS011;24063;51.794;19.578;2023-02-12T01:33:01;3.81;;;3.81;;
38266;SDS011;24063;51.794;19.578;2023-02-12T01:34:02;3.60;;;3.60;;
38266;SDS011;24063;51.794;19.578;2023-02-12T01:35:05;3.43;;;3.43;;
38266;SDS011;24063;51.794;19.578;2023-02-12T01:36:07;4.12;;;4.12;;
38266;SDS011;24063;51.794;19.578;2023-02-12T01:37:09;3.95;;;3.95;;
38266;SDS011;24063;51.794;19.578;2023-02-12T01:38:09;4.26;;;4.26;;
38266;SDS011;24063;51.794;19.578;2023-02-12T01:39:10;4.43;;;4.43;;
38266;SDS011;24063;51.794;19.578;2023-02-12T01:40:11;3.85;;;3.85;;
38266;SDS011;24063;51.794;19.578;2023-02-12T01:41:20;3.78;;;3.78;;
38266;SDS011;24063;51.794;19.578;2023-02-12T01:42:23;4.02;;;4.02;;
38266;SDS011;24063;51.794;19.578;2023-02-12T01:43:23;3.94;;;3.94;;
38266;SDS011;24063;51.794;19.578;2023-02-12T01:44:24;4.16;;;4.16;;
38266;SDS011;24063;51.794;19.578;2023-02-12T01:45:37;3.93;;;3.93;;
38266;SDS011;24063;51.794;19.578;2023-02-12T01:46:49;4.09;;;4.09;;
38266;SDS011;24063;51.794;19.578;2023-02-12T01:47:56;3.95;;;3.95;;
38266;SDS011;24063;51.794;19.578;2023-02-12T01:49:01;4.03;;;4.03;;
38266;SDS011;24063;51.794;19.578;2023-02-12T01:50:07;3.92;;;3.92;;
38266;SDS011;24063;51.794;19.578;2023-02-12T01:51:14;4.03;;;4.03;;
38266;SDS011;24063;51.794;19.578;2023-02-12T01:52:21;4.11;;;4.11;;
38266;SDS011;24063;51.794;19.578;2023-02-12T01:53:37;4.14;;;4.14;;
38266;SDS011;24063;51.794;19.578;2023-02-12T01:54:44;4.22;;;4.22;;
38266;SDS011;24063;51.794;19.578;2023-02-12T01:55:48;3.86;;;3.86;;
38266;SDS011;24063;51.794;19.578;2023-02-12T01:56:54;4.08;;;4.08;;
38266;SDS011;24063;51.794;19.578;2023-02-12T01:57:56;4.21;;;4.21;;
38266;SDS011;24063;51.794;19.578;2023-02-12T01:58:57;3.69;;;3.69;;
38266;SDS011;24063;51.794;19.578;2023-02-12T01:59:58;3.88;;;3.88;;
38266;SDS011;24063;51.794;19.578;2023-02-12T02:01:20;3.98;;;3.98;;
38266;SDS011;24063;51.794;19.578;2023-02-12T02:02:27;3.84;;;3.84;;
38266;SDS011;24063;51.794;19.578;2023-02-12T02:03:31;3.98;;;3.98;;
38266;SDS011;24063;51.794;19.578;2023-02-12T02:04:45;4.39;;;4.39;;
38266;SDS011;24063;51.794;19.578;2023-02-12T02:05:58;4.26;;;4.26;;
38266;SDS011;24063;51.794;19.578;2023-02-12T02:07:05;3.94;;;3.94;;
38266;SDS011;24063;51.794;19.578;2023-02-12T02:08:10;3.91;;;3.91;;
38266;SDS011;24063;51.794;19.578;2023-02-12T02:09:12;3.79;;;3.79;;
38266;SDS011;24063;51.794;19.578;2023-02-12T02:10:13;4.01;;;4.01;;
38266;SDS011;24063;51.794;19.578;2023-02-12T02:11:14;4.32;;;4.32;;
38266;SDS011;24063;51.794;19.578;2023-02-12T02:12:34;3.83;;;3.83;;
38266;SDS011;24063;51.794;19.578;2023-02-12T02:13:54;3.74;;;3.74;;
38266;SDS011;24063;51.794;19.578;2023-02-12T02:15:14;4.40;;;4.40;;
38266;SDS011;24063;51.794;19.578;2023-02-12T02:16:22;3.91;;;3.91;;
38266;SDS011;24063;51.794;19.578;2023-02-12T02:18:51;4.36;;;4.36;;
38266;SDS011;24063;51.794;19.578;2023-02-12T02:20:08;4.29;;;4.29;;
38266;SDS011;24063;51.794;19.578;2023-02-12T02:22:22;4.31;;;4.31;;
38266;SDS011;24063;51.794;19.578;2023-02-12T02:23:29;4.48;;;4.48;;
38266;SDS011;24063;51.794;19.578;2023-02-12T02:26:26;4.16;;;4.16;;
38266;SDS011;24063;51.794;19.578;2023-02-12T02:30:37;4.52;;;4.52;;
38266;SDS011;24063;51.794;19.578;2023-02-12T02:32:05;4.51;;;4.51;;
38266;SDS011;24063;51.794;19.578;2023-02-12T02:33:21;3.83;;;3.83;;
38266;SDS011;24063;51.794;19.578;2023-02-12T02:34:35;4.16;;;4.16;;
38266;SDS011;24063;51.794;19.578;2023-02-12T02:35:48;4.51;;;4.51;;
38266;SDS011;24063;51.794;19.578;2023-02-12T02:37:17;4.25;;;4.25;;
38266;SDS011;24063;51.794;19.578;2023-02-12T02:40:11;4.27;;;4.27;;
38266;SDS011;24063;51.794;19.578;2023-02-12T02:41:19;4.34;;;4.34;;
38266;SDS011;24063;51.794;19.578;2023-02-12T02:43:39;4.71;;;4.71;;
38266;SDS011;24063;51.794;19.578;2023-02-12T02:44:12;4.68;;;4.68;;
38266;SDS011;24063;51.794;19.578;2023-02-12T02:46:37;4.32;;;4.32;;
38266;SDS011;24063;51.794;19.578;2023-02-12T02:49:06;3.68;;;3.68;;
38266;SDS011;24063;51.794;19.578;2023-02-12T02:50:14;3.73;;;3.73;;
38266;SDS011;24063;51.794;19.578;2023-02-12T02:51:26;3.09;;;3.09;;
38266;SDS011;24063;51.794;19.578;2023-02-12T02:52:35;3.58;;;3.58;;
38266;SDS011;24063;51.794;19.578;2023-02-12T02:55:09;3.98;;;3.98;;
38266;SDS011;24063;51.794;19.578;2023-02-12T02:56:15;4.35;;;4.35;;
38266;SDS011;24063;51.794;19.578;2023-02-12T02:57:40;3.70;;;3.70;;
38266;SDS011;24063;51.794;19.578;2023-02-12T02:58:58;3.64;;;3.64;;
38266;SDS011;24063;51.794;19.578;2023-02-12T03:00:11;3.94;;;3.94;;
38266;SDS011;24063;51.794;19.578;2023-02-12T03:01:19;3.40;;;3.40;;
38266;SDS011;24063;51.794;19.578;2023-02-12T03:02:28;3.45;;;3.45;;
38266;SDS011;24063;51.794;19.578;2023-02-12T03:03:39;3.29;;;3.29;;
38266;SDS011;24063;51.794;19.578;2023-02-12T03:04:58;2.67;;;2.67;;
38266;SDS011;24063;51.794;19.578;2023-02-12T03:06:04;2.68;;;2.68;;
38266;SDS011;24063;51.794;19.578;2023-02-12T03:07:16;3.06;;;3.06;;
38266;SDS011;24063;51.794;19.578;2023-02-12T03:08:30;3.25;;;3.25;;
38266;SDS011;24063;51.794;19.578;2023-02-12T03:09:37;2.90;;;2.90;;
38266;SDS011;24063;51.794;19.578;2023-02-12T03:10:46;3.05;;;3.05;;
38266;SDS011;24063;51.794;19.578;2023-02-12T03:12:05;3.15;;;3.15;;
38266;SDS011;24063;51.794;19.578;2023-02-12T03:13:15;3.40;;;3.40;;
38266;SDS011;24063;51.794;19.578;2023-02-12T03:14:29;3.43;;;3.43;;
38266;SDS011;24063;51.794;19.578;2023-02-12T03:17:02;3.19;;;3.19;;
38266;SDS011;24063;51.794;19.578;2023-02-12T03:18:09;3.67;;;3.67;;
38266;SDS011;24063;51.794;19.578;2023-02-12T03:19:19;3.17;;;3.17;;
38266;SDS011;24063;51.794;19.578;2023-02-12T03:20:25;3.58;;;3.58;;
38266;SDS011;24063;51.794;19.578;2023-02-12T03:21:32;3.49;;;3.49;;
38266;SDS011;24063;51.794;19.578;2023-02-12T03:22:42;3.10;;;3.10;;
38266;SDS011;24063;51.794;19.578;2023-02-12T03:24:26;3.57;;;3.57;;
38266;SDS011;24063;51.794;19.578;2023-02-12T03:25:37;3.66;;;3.66;;
38266;SDS011;24063;51.794;19.578;2023-02-12T03:26:51;4.30;;;4.30;;
38266;SDS011;24063;51.794;19.578;2023-02-12T03:28:09;3.75;;;3.75;;
38266;SDS011;24063;51.794;19.578;2023-02-12T03:29:17;3.83;;;3.83;;
38266;SDS011;24063;51.794;19.578;2023-02-12T03:30:18;4.10;;;4.10;;
38266;SDS011;24063;51.794;19.578;2023-02-12T03:32:57;4.29;;;4.29;;
38266;SDS011;24063;51.794;19.578;2023-02-12T03:36:20;4.82;;;4.82;;
38266;SDS011;24063;51.794;19.578;2023-02-12T03:39:24;4.27;;;4.27;;
38266;SDS011;24063;51.794;19.578;2023-02-12T03:40:41;4.66;;;4.66;;
38266;SDS011;24063;51.794;19.578;2023-02-12T03:43:21;4.79;;;4.79;;
38266;SDS011;24063;51.794;19.578;2023-02-12T03:46:01;5.07;;;5.07;;
38266;SDS011;24063;51.794;19.578;2023-02-12T03:47:16;4.71;;;4.71;;
38266;SDS011;24063;51.794;19.578;2023-02-12T03:48:47;5.16;;;5.16;;
38266;SDS011;24063;51.794;19.578;2023-02-12T03:51:20;4.68;;;4.68;;
38266;SDS011;24063;51.794;19.578;2023-02-12T03:52:25;4.54;;;4.54;;
38266;SDS011;24063;51.794;19.578;2023-02-12T03:53:26;4.63;;;4.63;;
38266;SDS011;24063;51.794;19.578;2023-02-12T03:54:29;4.76;;;4.76;;
38266;SDS011;24063;51.794;19.578;2023-02-12T03:55:31;4.54;;;4.54;;
38266;SDS011;24063;51.794;19.578;2023-02-12T03:56:41;4.11;;;4.11;;
38266;SDS011;24063;51.794;19.578;2023-02-12T03:57:54;4.18;;;4.18;;
38266;SDS011;24063;51.794;19.578;2023-02-12T03:59:00;4.49;;;4.49;;
38266;SDS011;24063;51.794;19.578;2023-02-12T04:00:04;4.34;;;4.34;;
38266;SDS011;24063;51.794;19.578;2023-02-12T04:01:13;4.28;;;4.28;;
38266;SDS011;24063;51.794;19.578;2023-02-12T04:02:15;4.65;;;4.65;;
38266;SDS011;24063;51.794;19.578;2023-02-12T04:03:18;4.17;;;4.17;;
38266;SDS011;24063;51.794;19.578;2023-02-12T04:04:19;4.94;;;4.94;;
38266;SDS011;24063;51.794;19.578;2023-02-12T04:05:22;4.46;;;4.46;;
38266;SDS011;24063;51.794;19.578;2023-02-12T04:06:25;4.74;;;4.74;;
38266;SDS011;24063;51.794;19.578;2023-02-12T04:07:30;4.73;;;4.73;;
38266;SDS011;24063;51.794;19.578;2023-02-12T04:08:31;4.51;;;4.51;;
38266;SDS011;24063;51.794;19.578;2023-02-12T04:09:32;4.51;;;4.51;;
38266;SDS011;24063;51.794;19.578;2023-02-12T04:12:17;3.74;;;3.74;;
38266;SDS011;24063;51.794;19.578;2023-02-12T04:16:42;3.24;;;3.24;;
38266;SDS011;24063;51.794;19.578;2023-02-12T04:17:56;3.31;;;3.31;;
38266;SDS011;24063;51.794;19.578;2023-02-12T04:19:06;4.08;;;4.08;;
38266;SDS011;24063;51.794;19.578;2023-02-12T04:26:16;3.44;;;3.44;;
38266;SDS011;24063;51.794;19.578;2023-02-12T04:28:40;4.06;;;4.06;;
38266;SDS011;24063;51.794;19.578;2023-02-12T04:29:50;3.57;;;3.57;;
38266;SDS011;24063;51.794;19.578;2023-02-12T04:32:13;3.36;;;3.36;;
38266;SDS011;24063;51.794;19.578;2023-02-12T04:33:31;3.57;;;3.57;;
38266;SDS011;24063;51.794;19.578;2023-02-12T04:36:20;2.86;;;2.86;;
38266;SDS011;24063;51.794;19.578;2023-02-12T04:38:43;3.30;;;3.30;;
38266;SDS011;24063;51.794;19.578;2023-02-12T04:39:51;3.25;;;3.25;;
38266;SDS011;24063;51.794;19.578;2023-02-12T04:40:53;3.57;;;3.57;;
38266;SDS011;24063;51.794;19.578;2023-02-12T04:41:59;3.51;;;3.51;;
38266;SDS011;24063;51.794;19.578;2023-02-12T04:43:01;3.59;;;3.59;;
38266;SDS011;24063;51.794;19.578;2023-02-12T04:44:15;3.65;;;3.65;;
38266;SDS011;24063;51.794;19.578;2023-02-12T04:45:28;3.24;;;3.24;;
38266;SDS011;24063;51.794;19.578;2023-02-12T04:46:32;3.04;;;3.04;;
38266;SDS011;24063;51.794;19.578;2023-02-12T04:47:33;3.32;;;3.32;;
38266;SDS011;24063;51.794;19.578;2023-02-12T04:48:34;2.63;;;2.63;;
38266;SDS011;24063;51.794;19.578;2023-02-12T04:49:44;2.88;;;2.88;;
38266;SDS011;24063;51.794;19.578;2023-02-12T04:50:45;2.43;;;2.43;;
38266;SDS011;24063;51.794;19.578;2023-02-12T04:51:46;2.62;;;2.62;;
38266;SDS011;24063;51.794;19.578;2023-02-12T04:52:48;2.34;;;2.34;;
38266;SDS011;24063;51.794;19.578;2023-02-12T04:56:04;2.00;;;2.00;;
38266;SDS011;24063;51.794;19.578;2023-02-12T04:57:05;2.14;;;2.14;;
38266;SDS011;24063;51.794;19.578;2023-02-12T04:58:05;2.05;;;2.05;;
38266;SDS011;24063;51.794;19.578;2023-02-12T04:59:06;2.14;;;2.14;;
38266;SDS011;24063;51.794;19.578;2023-02-12T05:00:10;2.22;;;2.22;;
38266;SDS011;24063;51.794;19.578;2023-02-12T05:01:12;1.85;;;1.85;;
38266;SDS011;24063;51.794;19.578;2023-02-12T05:02:13;1.65;;;1.65;;
38266;SDS011;24063;51.794;19.578;2023-02-12T05:03:13;1.81;;;1.81;;
38266;SDS011;24063;51.794;19.578;2023-02-12T05:04:14;1.67;;;1.67;;
38266;SDS011;24063;51.794;19.578;2023-02-12T05:05:17;1.46;;;1.46;;
38266;SDS011;24063;51.794;19.578;2023-02-12T05:06:17;1.59;;;1.59;;
38266;SDS011;24063;51.794;19.578;2023-02-12T05:07:18;1.63;;;1.63;;
38266;SDS011;24063;51.794;19.578;2023-02-12T05:08:18;1.77;;;1.77;;
38266;SDS011;24063;51.794;19.578;2023-02-12T05:09:19;1.66;;;1.66;;
38266;SDS011;24063;51.794;19.578;2023-02-12T05:10:21;1.68;;;1.68;;
38266;SDS011;24063;51.794;19.578;2023-02-12T05:11:23;1.58;;;1.58;;
38266;SDS011;24063;51.794;19.578;2023-02-12T05:12:23;1.55;;;1.55;;
38266;SDS011;24063;51.794;19.578;2023-02-12T05:13:24;1.64;;;1.64;;
38266;SDS011;24063;51.794;19.578;2023-02-12T05:14:24;1.32;;;1.32;;
38266;SDS011;24063;51.794;19.578;2023-02-12T05:15:25;1.48;;;1.48;;
38266;SDS011;24063;51.794;19.578;2023-02-12T05:16:26;1.65;;;1.65;;
38266;SDS011;24063;51.794;19.578;2023-02-12T05:17:26;1.45;;;1.45;;
38266;SDS011;24063;51.794;19.578;2023-02-12T05:18:27;1.39;;;1.39;;
38266;SDS011;24063;51.794;19.578;2023-02-12T05:19:27;1.52;;;1.52;;
38266;SDS011;24063;51.794;19.578;2023-02-12T05:20:28;1.50;;;1.50;;
38266;SDS011;24063;51.794;19.578;2023-02-12T05:21:29;1.31;;;1.31;;
38266;SDS011;24063;51.794;19.578;2023-02-12T05:22:30;1.35;;;1.35;;
38266;SDS011;24063;51.794;19.578;2023-02-12T05:23:32;1.68;;;1.68;;
38266;SDS011;24063;51.794;19.578;2023-02-12T05:24:35;1.61;;;1.61;;
38266;SDS011;24063;51.794;19.578;2023-02-12T05:25:36;1.77;;;1.77;;
38266;SDS011;24063;51.794;19.578;2023-02-12T05:26:36;2.34;;;2.34;;
38266;SDS011;24063;51.794;19.578;2023-02-12T05:27:37;2.60;;;2.60;;
38266;SDS011;24063;51.794;19.578;2023-02-12T05:28:37;3.72;;;3.72;;
38266;SDS011;24063;51.794;19.578;2023-02-12T05:29:38;4.09;;;4.09;;
38266;SDS011;24063;51.794;19.578;2023-02-12T05:30:38;3.71;;;3.71;;
38266;SDS011;24063;51.794;19.578;2023-02-12T05:31:39;4.69;;;4.69;;
38266;SDS011;24063;51.794;19.578;2023-02-12T05:32:40;5.93;;;5.93;;
38266;SDS011;24063;51.794;19.578;2023-02-12T05:33:41;5.36;;;5.36;;
38266;SDS011;24063;51.794;19.578;2023-02-12T05:34:43;6.07;;;6.07;;
38266;SDS011;24063;51.794;19.578;2023-02-12T05:35:43;5.94;;;5.94;;
38266;SDS011;24063;51.794;19.578;2023-02-12T05:36:44;6.08;;;6.08;;
38266;SDS011;24063;51.794;19.578;2023-02-12T05:37:44;8.73;;;8.73;;
38266;SDS011;24063;51.794;19.578;2023-02-12T05:38:45;7.86;;;7.86;;
38266;SDS011;24063;51.794;19.578;2023-02-12T05:39:47;6.41;;;6.41;;
38266;SDS011;24063;51.794;19.578;2023-02-12T05:40:49;8.93;;;8.93;;
38266;SDS011;24063;51.794;19.578;2023-02-12T05:41:49;8.00;;;8.00;;
38266;SDS011;24063;51.794;19.578;2023-02-12T05:42:50;7.58;;;7.58;;
38266;SDS011;24063;51.794;19.578;2023-02-12T05:43:51;7.24;;;7.24;;
38266;SDS011;24063;51.794;19.578;2023-02-12T05:44:52;6.94;;;6.94;;
38266;SDS011;24063;51.794;19.578;2023-02-12T05:45:53;6.58;;;6.58;;
38266;SDS011;24063;51.794;19.578;2023-02-12T05:46:53;6.63;;;6.63;;
38266;SDS011;24063;51.794;19.578;2023-02-12T05:47:54;7.25;;;7.25;;
38266;SDS011;24063;51.794;19.578;2023-02-12T05:48:56;7.43;;;7.43;;
38266;SDS011;24063;51.794;19.578;2023-02-12T05:49:56;6.73;;;6.73;;
38266;SDS011;24063;51.794;19.578;2023-02-12T05:52:08;4.65;;;4.65;;
38266;SDS011;24063;51.794;19.578;2023-02-12T05:53:08;4.38;;;4.38;;
38266;SDS011;24063;51.794;19.578;2023-02-12T05:54:09;3.94;;;3.94;;
38266;SDS011;24063;51.794;19.578;2023-02-12T05:55:10;3.48;;;3.48;;
38266;SDS011;24063;51.794;19.578;2023-02-12T05:56:15;2.53;;;2.53;;
38266;SDS011;24063;51.794;19.578;2023-02-12T05:57:25;2.74;;;2.74;;
38266;SDS011;24063;51.794;19.578;2023-02-12T05:58:26;2.98;;;2.98;;
38266;SDS011;24063;51.794;19.578;2023-02-12T05:59:26;3.34;;;3.34;;
38266;SDS011;24063;51.794;19.578;2023-02-12T06:00:27;2.63;;;2.63;;
38266;SDS011;24063;51.794;19.578;2023-02-12T06:01:29;2.72;;;2.72;;
38266;SDS011;24063;51.794;19.578;2023-02-12T06:02:35;2.53;;;2.53;;
38266;SDS011;24063;51.794;19.578;2023-02-12T06:03:36;3.23;;;3.23;;
38266;SDS011;24063;51.794;19.578;2023-02-12T06:04:37;3.04;;;3.04;;
38266;SDS011;24063;51.794;19.578;2023-02-12T06:05:37;3.53;;;3.53;;
38266;SDS011;24063;51.794;19.578;2023-02-12T06:06:38;3.42;;;3.42;;
38266;SDS011;24063;51.794;19.578;2023-02-12T06:07:41;5.31;;;5.31;;
38266;SDS011;24063;51.794;19.578;2023-02-12T06:08:42;4.80;;;4.80;;
38266;SDS011;24063;51.794;19.578;2023-02-12T06:09:43;3.48;;;3.48;;
38266;SDS011;24063;51.794;19.578;2023-02-12T06:10:43;2.60;;;2.60;;
38266;SDS011;24063;51.794;19.578;2023-02-12T06:11:44;2.93;;;2.93;;
38266;SDS011;24063;51.794;19.578;2023-02-12T06:12:45;3.21;;;3.21;;
38266;SDS011;24063;51.794;19.578;2023-02-12T06:13:46;2.79;;;2.79;;
38266;SDS011;24063;51.794;19.578;2023-02-12T06:14:47;2.58;;;2.58;;
38266;SDS011;24063;51.794;19.578;2023-02-12T06:15:47;2.63;;;2.63;;
38266;SDS011;24063;51.794;19.578;2023-02-12T06:16:49;2.64;;;2.64;;
38266;SDS011;24063;51.794;19.578;2023-02-12T06:17:51;4.13;;;4.13;;
38266;SDS011;24063;51.794;19.578;2023-02-12T06:18:51;6.21;;;6.21;;
38266;SDS011;24063;51.794;19.578;2023-02-12T06:19:54;5.16;;;5.16;;
38266;SDS011;24063;51.794;19.578;2023-02-12T06:20:54;4.04;;;4.04;;
38266;SDS011;24063;51.794;19.578;2023-02-12T06:21:55;3.32;;;3.32;;
38266;SDS011;24063;51.794;19.578;2023-02-12T06:22:56;3.81;;;3.81;;
38266;SDS011;24063;51.794;19.578;2023-02-12T06:23:57;4.22;;;4.22;;
38266;SDS011;24063;51.794;19.578;2023-02-12T06:24:58;4.81;;;4.81;;
38266;SDS011;24063;51.794;19.578;2023-02-12T06:25:59;4.54;;;4.54;;
38266;SDS011;24063;51.794;19.578;2023-02-12T06:26:59;4.90;;;4.90;;
38266;SDS011;24063;51.794;19.578;2023-02-12T06:28:00;8.07;;;8.07;;
38266;SDS011;24063;51.794;19.578;2023-02-12T06:29:00;5.64;;;5.64;;
38266;SDS011;24063;51.794;19.578;2023-02-12T06:30:01;4.67;;;4.67;;
38266;SDS011;24063;51.794;19.578;2023-02-12T06:31:02;4.61;;;4.61;;
38266;SDS011;24063;51.794;19.578;2023-02-12T06:32:03;7.90;;;7.90;;
38266;SDS011;24063;51.794;19.578;2023-02-12T06:33:04;13.47;;;13.47;;
38266;SDS011;24063;51.794;19.578;2023-02-12T06:34:05;24.55;;;24.40;;
38266;SDS011;24063;51.794;19.578;2023-02-12T06:35:08;14.36;;;14.18;;
38266;SDS011;24063;51.794;19.578;2023-02-12T06:36:09;14.68;;;14.38;;
38266;SDS011;24063;51.794;19.578;2023-02-12T06:37:10;7.94;;;7.87;;
38266;SDS011;24063;51.794;19.578;2023-02-12T06:38:11;4.95;;;4.94;;
38266;SDS011;24063;51.794;19.578;2023-02-12T06:39:12;3.99;;;3.99;;
38266;SDS011;24063;51.794;19.578;2023-02-12T06:40:14;3.55;;;3.55;;
38266;SDS011;24063;51.794;19.578;2023-02-12T06:41:15;3.44;;;3.44;;
38266;SDS011;24063;51.794;19.578;2023-02-12T06:42:15;2.96;;;2.96;;
38266;SDS011;24063;51.794;19.578;2023-02-12T06:43:16;3.31;;;3.31;;
38266;SDS011;24063;51.794;19.578;2023-02-12T06:44:17;3.62;;;3.62;;
38266;SDS011;24063;51.794;19.578;2023-02-12T06:45:17;3.27;;;3.27;;
38266;SDS011;24063;51.794;19.578;2023-02-12T06:46:18;3.62;;;3.62;;
38266;SDS011;24063;51.794;19.578;2023-02-12T06:47:19;3.08;;;3.08;;
38266;SDS011;24063;51.794;19.578;2023-02-12T06:48:19;3.05;;;3.05;;
38266;SDS011;24063;51.794;19.578;2023-02-12T06:49:20;2.66;;;2.66;;
38266;SDS011;24063;51.794;19.578;2023-02-12T06:50:20;3.02;;;3.02;;
38266;SDS011;24063;51.794;19.578;2023-02-12T06:51:21;3.29;;;3.29;;
38266;SDS011;24063;51.794;19.578;2023-02-12T06:52:22;2.82;;;2.82;;
38266;SDS011;24063;51.794;19.578;2023-02-12T06:53:22;3.51;;;3.51;;
38266;SDS011;24063;51.794;19.578;2023-02-12T06:54:23;3.48;;;3.48;;
38266;SDS011;24063;51.794;19.578;2023-02-12T06:55:24;3.34;;;3.34;;
38266;SDS011;24063;51.794;19.578;2023-02-12T06:56:25;2.96;;;2.96;;
38266;SDS011;24063;51.794;19.578;2023-02-12T06:57:27;2.90;;;2.90;;
38266;SDS011;24063;51.794;19.578;2023-02-12T06:58:29;2.88;;;2.88;;
38266;SDS011;24063;51.794;19.578;2023-02-12T06:59:29;2.99;;;2.99;;
38266;SDS011;24063;51.794;19.578;2023-02-12T07:00:30;2.83;;;2.83;;
38266;SDS011;24063;51.794;19.578;2023-02-12T07:01:31;2.78;;;2.78;;
38266;SDS011;24063;51.794;19.578;2023-02-12T07:02:32;3.66;;;3.66;;
38266;SDS011;24063;51.794;19.578;2023-02-12T07:03:33;3.35;;;3.35;;
38266;SDS011;24063;51.794;19.578;2023-02-12T07:04:33;2.90;;;2.90;;
38266;SDS011;24063;51.794;19.578;2023-02-12T07:05:34;4.14;;;4.14;;